sensor_id;sensor_type;location;lat;lon;timestamp;temperature;humidity
44277;DHT22;29973;43.742;1.236;2022-12-05T00:00:24;-0.20;99.90
44277;DHT22;29973;43.742;1.236;2022-12-05T00:02:50;-0.20;99.90
44277;DHT22;29973;43.742;1.236;2022-12-05T00:05:16;-0.10;99.90
44277;DHT22;29973;43.742;1.236;2022-12-05T00:07:42;-0.20;99.90
44277;DHT22;29973;43.742;1.236;2022-12-05T00:10:08;-0.10;99.90
44277;DHT22;29973;43.742;1.236;2022-12-05T00:12:36;-0.20;99.90
44277;DHT22;29973;43.742;1.236;2022-12-05T00:15:02;-0.30;99.90
44277;DHT22;29973;43.742;1.236;2022-12-05T00:17:39;-0.30;99.90
44277;DHT22;29973;43.742;1.236;2022-12-05T00:20:06;-0.20;99.90
44277;DHT22;29973;43.742;1.236;2022-12-05T00:22:36;-0.10;99.90
44277;DHT22;29973;43.742;1.236;2022-12-05T00:25:06;-0.10;99.90
44277;DHT22;29973;43.742;1.236;2022-12-05T00:27:32;0.10;99.90
44277;DHT22;29973;43.742;1.236;2022-12-05T00:29:59;0.10;99.90
44277;DHT22;29973;43.742;1.236;2022-12-05T00:32:27;0.10;99.90
44277;DHT22;29973;43.742;1.236;2022-12-05T00:34:52;0.20;99.90
44277;DHT22;29973;43.742;1.236;2022-12-05T00:37:18;0.20;99.90
44277;DHT22;29973;43.742;1.236;2022-12-05T00:39:44;0.20;99.90
44277;DHT22;29973;43.742;1.236;2022-12-05T00:42:10;0.20;99.90
44277;DHT22;29973;43.742;1.236;2022-12-05T00:44:35;0.10;99.90
44277;DHT22;29973;43.742;1.236;2022-12-05T00:47:02;0.10;99.90
44277;DHT22;29973;43.742;1.236;2022-12-05T00:49:27;0.00;99.90
44277;DHT22;29973;43.742;1.236;2022-12-05T00:51:53;0.00;99.90
44277;DHT22;29973;43.742;1.236;2022-12-05T00:54:19;0.00;99.90
44277;DHT22;29973;43.742;1.236;2022-12-05T00:56:45;0.00;99.90
44277;DHT22;29973;43.742;1.236;2022-12-05T00:59:15;0.00;99.90
44277;DHT22;29973;43.742;1.236;2022-12-05T01:01:42;0.00;99.90
44277;DHT22;29973;43.742;1.236;2022-12-05T01:04:24;-0.10;99.90
44277;DHT22;29973;43.742;1.236;2022-12-05T01:06:53;-0.10;99.90
44277;DHT22;29973;43.742;1.236;2022-12-05T01:09:21;-0.10;99.90
44277;DHT22;29973;43.742;1.236;2022-12-05T01:11:49;0.00;99.90
44277;DHT22;29973;43.742;1.236;2022-12-05T01:14:27;0.00;99.90
44277;DHT22;29973;43.742;1.236;2022-12-05T01:16:54;-0.10;99.90
44277;DHT22;29973;43.742;1.236;2022-12-05T01:19:26;-0.10;99.90
44277;DHT22;29973;43.742;1.236;2022-12-05T01:21:53;-0.20;99.90
44277;DHT22;29973;43.742;1.236;2022-12-05T01:24:20;-0.30;99.90
44277;DHT22;29973;43.742;1.236;2022-12-05T01:26:47;-0.30;99.90
44277;DHT22;29973;43.742;1.236;2022-12-05T01:29:17;-0.40;99.90
44277;DHT22;29973;43.742;1.236;2022-12-05T01:31:43;-0.50;99.90
44277;DHT22;29973;43.742;1.236;2022-12-05T01:34:12;-0.50;99.90
44277;DHT22;29973;43.742;1.236;2022-12-05T01:36:41;-0.40;99.90
44277;DHT22;29973;43.742;1.236;2022-12-05T01:39:11;-0.50;99.90
44277;DHT22;29973;43.742;1.236;2022-12-05T01:41:46;-0.60;99.90
44277;DHT22;29973;43.742;1.236;2022-12-05T01:46:46;-0.90;99.90
44277;DHT22;29973;43.742;1.236;2022-12-05T01:49:36;-1.10;99.90
44277;DHT22;29973;43.742;1.236;2022-12-05T01:52:09;-1.20;99.90
44277;DHT22;29973;43.742;1.236;2022-12-05T01:54:37;-1.30;99.90
44277;DHT22;29973;43.742;1.236;2022-12-05T01:57:06;-1.30;99.90
44277;DHT22;29973;43.742;1.236;2022-12-05T01:59:35;-1.30;99.90
44277;DHT22;29973;43.742;1.236;2022-12-05T02:02:04;-1.20;99.90
44277;DHT22;29973;43.742;1.236;2022-12-05T02:04:30;-1.30;99.90
44277;DHT22;29973;43.742;1.236;2022-12-05T02:06:57;-1.30;99.90
44277;DHT22;29973;43.742;1.236;2022-12-05T02:09:23;-1.10;99.90
44277;DHT22;29973;43.742;1.236;2022-12-05T02:11:58;-1.10;99.90
44277;DHT22;29973;43.742;1.236;2022-12-05T02:23:21;-1.30;99.90
44277;DHT22;29973;43.742;1.236;2022-12-05T02:26:56;-1.40;99.90
44277;DHT22;29973;43.742;1.236;2022-12-05T02:35:04;-1.60;99.90
44277;DHT22;29973;43.742;1.236;2022-12-05T02:43:07;-2.10;99.90
44277;DHT22;29973;43.742;1.236;2022-12-05T02:45:41;-2.00;99.90
44277;DHT22;29973;43.742;1.236;2022-12-05T02:48:10;-2.00;99.90
44277;DHT22;29973;43.742;1.236;2022-12-05T02:50:43;-2.10;99.90
44277;DHT22;29973;43.742;1.236;2022-12-05T02:53:13;-1.90;99.90
44277;DHT22;29973;43.742;1.236;2022-12-05T02:55:41;-1.90;99.90
44277;DHT22;29973;43.742;1.236;2022-12-05T02:58:16;-2.00;99.90
44277;DHT22;29973;43.742;1.236;2022-12-05T03:00:47;-2.20;99.90
44277;DHT22;29973;43.742;1.236;2022-12-05T03:03:16;-2.30;99.90
44277;DHT22;29973;43.742;1.236;2022-12-05T03:08:15;-2.30;99.90
44277;DHT22;29973;43.742;1.236;2022-12-05T03:10:42;-2.50;99.90
44277;DHT22;29973;43.742;1.236;2022-12-05T03:13:15;-2.20;99.90
44277;DHT22;29973;43.742;1.236;2022-12-05T03:15:47;-2.10;99.90
44277;DHT22;29973;43.742;1.236;2022-12-05T03:18:26;-2.10;99.90
44277;DHT22;29973;43.742;1.236;2022-12-05T03:23:43;-2.30;99.90
44277;DHT22;29973;43.742;1.236;2022-12-05T03:29:19;-2.10;99.90
44277;DHT22;29973;43.742;1.236;2022-12-05T03:32:09;-2.20;99.90
44277;DHT22;29973;43.742;1.236;2022-12-05T03:35:01;-2.20;99.90
44277;DHT22;29973;43.742;1.236;2022-12-05T03:37:43;-2.40;99.90
44277;DHT22;29973;43.742;1.236;2022-12-05T03:40:26;-2.30;99.90
44277;DHT22;29973;43.742;1.236;2022-12-05T03:43:09;-2.20;99.90
44277;DHT22;29973;43.742;1.236;2022-12-05T03:48:35;-2.40;99.90
44277;DHT22;29973;43.742;1.236;2022-12-05T03:51:05;-2.20;99.90
44277;DHT22;29973;43.742;1.236;2022-12-05T03:53:38;-2.10;99.90
44277;DHT22;29973;43.742;1.236;2022-12-05T03:56:20;-2.20;99.90
44277;DHT22;29973;43.742;1.236;2022-12-05T03:58:55;-2.20;99.90
44277;DHT22;29973;43.742;1.236;2022-12-05T04:01:22;-2.30;99.90
44277;DHT22;29973;43.742;1.236;2022-12-05T04:03:54;-2.40;99.90
44277;DHT22;29973;43.742;1.236;2022-12-05T04:06:31;-2.40;99.90
44277;DHT22;29973;43.742;1.236;2022-12-05T04:09:02;-2.30;99.90
44277;DHT22;29973;43.742;1.236;2022-12-05T04:11:29;-2.40;99.90
44277;DHT22;29973;43.742;1.236;2022-12-05T04:14:19;-2.40;99.90
44277;DHT22;29973;43.742;1.236;2022-12-05T04:16:55;-2.40;99.90
44277;DHT22;29973;43.742;1.236;2022-12-05T04:22:23;-2.40;99.90
44277;DHT22;29973;43.742;1.236;2022-12-05T04:24:50;-2.50;99.90
44277;DHT22;29973;43.742;1.236;2022-12-05T04:30:42;-2.50;99.90
44277;DHT22;29973;43.742;1.236;2022-12-05T04:36:08;-2.10;99.90
44277;DHT22;29973;43.742;1.236;2022-12-05T04:39:01;-2.10;99.90
44277;DHT22;29973;43.742;1.236;2022-12-05T04:41:33;-2.00;99.90
44277;DHT22;29973;43.742;1.236;2022-12-05T04:44:07;-1.80;99.90
44277;DHT22;29973;43.742;1.236;2022-12-05T04:46:34;-1.70;99.90
44277;DHT22;29973;43.742;1.236;2022-12-05T04:49:05;-1.60;99.90
44277;DHT22;29973;43.742;1.236;2022-12-05T04:51:33;-1.50;99.90
44277;DHT22;29973;43.742;1.236;2022-12-05T04:54:21;-1.40;99.90
44277;DHT22;29973;43.742;1.236;2022-12-05T04:56:51;-1.30;99.90
44277;DHT22;29973;43.742;1.236;2022-12-05T04:59:19;-1.50;99.90
44277;DHT22;29973;43.742;1.236;2022-12-05T05:01:50;-1.50;99.90
44277;DHT22;29973;43.742;1.236;2022-12-05T05:04:34;-1.50;99.90
44277;DHT22;29973;43.742;1.236;2022-12-05T05:07:08;-1.30;99.90
44277;DHT22;29973;43.742;1.236;2022-12-05T05:09:35;-1.30;99.90
44277;DHT22;29973;43.742;1.236;2022-12-05T05:12:01;-1.30;99.90
44277;DHT22;29973;43.742;1.236;2022-12-05T05:14:27;-1.20;99.90
44277;DHT22;29973;43.742;1.236;2022-12-05T05:16:53;-1.30;99.90
44277;DHT22;29973;43.742;1.236;2022-12-05T05:19:19;-1.50;99.90
44277;DHT22;29973;43.742;1.236;2022-12-05T05:21:44;-1.50;99.90
44277;DHT22;29973;43.742;1.236;2022-12-05T05:24:11;-1.50;99.90
44277;DHT22;29973;43.742;1.236;2022-12-05T05:26:39;-1.50;99.90
44277;DHT22;29973;43.742;1.236;2022-12-05T05:29:06;-1.50;99.90
44277;DHT22;29973;43.742;1.236;2022-12-05T05:31:33;-1.60;99.90
44277;DHT22;29973;43.742;1.236;2022-12-05T05:33:59;-1.60;99.90
44277;DHT22;29973;43.742;1.236;2022-12-05T05:36:26;-1.70;99.90
44277;DHT22;29973;43.742;1.236;2022-12-05T05:38:54;-1.70;99.90
44277;DHT22;29973;43.742;1.236;2022-12-05T05:41:22;-1.80;99.90
44277;DHT22;29973;43.742;1.236;2022-12-05T05:43:49;-1.70;99.90
44277;DHT22;29973;43.742;1.236;2022-12-05T05:46:16;-1.50;99.90
44277;DHT22;29973;43.742;1.236;2022-12-05T05:48:42;-1.50;99.90
44277;DHT22;29973;43.742;1.236;2022-12-05T05:51:11;-1.70;99.90
44277;DHT22;29973;43.742;1.236;2022-12-05T05:53:37;-1.80;99.90
44277;DHT22;29973;43.742;1.236;2022-12-05T05:56:08;-1.80;99.90
44277;DHT22;29973;43.742;1.236;2022-12-05T05:58:34;-1.80;99.90
44277;DHT22;29973;43.742;1.236;2022-12-05T06:01:09;-1.80;99.90
44277;DHT22;29973;43.742;1.236;2022-12-05T06:03:36;-1.90;99.90
44277;DHT22;29973;43.742;1.236;2022-12-05T06:06:04;-1.90;99.90
44277;DHT22;29973;43.742;1.236;2022-12-05T06:08:31;-2.10;99.90
44277;DHT22;29973;43.742;1.236;2022-12-05T06:10:58;-1.90;99.90
44277;DHT22;29973;43.742;1.236;2022-12-05T06:13:23;-1.80;99.90
44277;DHT22;29973;43.742;1.236;2022-12-05T06:15:50;-1.80;99.90
44277;DHT22;29973;43.742;1.236;2022-12-05T06:18:15;-1.90;99.90
44277;DHT22;29973;43.742;1.236;2022-12-05T06:20:41;-2.20;99.90
44277;DHT22;29973;43.742;1.236;2022-12-05T06:23:07;-2.20;99.90
44277;DHT22;29973;43.742;1.236;2022-12-05T06:25:33;-2.20;99.90
44277;DHT22;29973;43.742;1.236;2022-12-05T06:27:59;-2.40;99.90
44277;DHT22;29973;43.742;1.236;2022-12-05T06:30:24;-2.40;99.90
44277;DHT22;29973;43.742;1.236;2022-12-05T06:32:50;-2.30;99.90
44277;DHT22;29973;43.742;1.236;2022-12-05T06:35:16;-2.30;99.90
44277;DHT22;29973;43.742;1.236;2022-12-05T06:37:42;-2.30;99.90
44277;DHT22;29973;43.742;1.236;2022-12-05T06:40:10;-2.30;99.90
44277;DHT22;29973;43.742;1.236;2022-12-05T06:42:36;-2.50;99.90
44277;DHT22;29973;43.742;1.236;2022-12-05T06:45:02;-2.80;99.90
44277;DHT22;29973;43.742;1.236;2022-12-05T06:47:28;-2.70;99.90
44277;DHT22;29973;43.742;1.236;2022-12-05T06:49:53;-2.60;99.90
44277;DHT22;29973;43.742;1.236;2022-12-05T06:52:19;-2.60;99.90
44277;DHT22;29973;43.742;1.236;2022-12-05T06:54:45;-2.00;99.90
44277;DHT22;29973;43.742;1.236;2022-12-05T06:57:11;-1.80;99.90
44277;DHT22;29973;43.742;1.236;2022-12-05T06:59:37;-1.70;99.90
44277;DHT22;29973;43.742;1.236;2022-12-05T07:02:03;-1.70;99.90
44277;DHT22;29973;43.742;1.236;2022-12-05T07:04:33;-1.90;99.90
44277;DHT22;29973;43.742;1.236;2022-12-05T07:06:58;-1.90;99.90
44277;DHT22;29973;43.742;1.236;2022-12-05T07:09:27;-2.00;99.90
44277;DHT22;29973;43.742;1.236;2022-12-05T07:12:17;-1.90;99.90
44277;DHT22;29973;43.742;1.236;2022-12-05T07:14:44;-2.00;99.90
44277;DHT22;29973;43.742;1.236;2022-12-05T07:17:10;-2.20;99.90
44277;DHT22;29973;43.742;1.236;2022-12-05T07:19:36;-2.10;99.90
44277;DHT22;29973;43.742;1.236;2022-12-05T07:22:02;-2.30;99.90
44277;DHT22;29973;43.742;1.236;2022-12-05T07:24:27;-2.30;99.90
44277;DHT22;29973;43.742;1.236;2022-12-05T07:26:53;-2.20;99.90
44277;DHT22;29973;43.742;1.236;2022-12-05T07:29:19;-2.20;99.90
44277;DHT22;29973;43.742;1.236;2022-12-05T07:31:44;-2.30;99.90
44277;DHT22;29973;43.742;1.236;2022-12-05T07:34:10;-2.30;99.90
44277;DHT22;29973;43.742;1.236;2022-12-05T07:36:36;-2.30;99.90
44277;DHT22;29973;43.742;1.236;2022-12-05T07:39:03;-2.50;99.90
44277;DHT22;29973;43.742;1.236;2022-12-05T07:41:31;-2.30;99.90
44277;DHT22;29973;43.742;1.236;2022-12-05T07:43:58;-2.20;99.90
44277;DHT22;29973;43.742;1.236;2022-12-05T07:46:25;-2.10;99.90
44277;DHT22;29973;43.742;1.236;2022-12-05T07:48:52;-2.00;99.90
44277;DHT22;29973;43.742;1.236;2022-12-05T07:51:19;-2.30;99.90
44277;DHT22;29973;43.742;1.236;2022-12-05T07:53:45;-2.10;99.90
44277;DHT22;29973;43.742;1.236;2022-12-05T07:56:14;-2.20;99.90
44277;DHT22;29973;43.742;1.236;2022-12-05T07:58:41;-1.90;99.90
44277;DHT22;29973;43.742;1.236;2022-12-05T08:01:12;-1.90;99.90
44277;DHT22;29973;43.742;1.236;2022-12-05T08:03:38;-1.90;99.90
44277;DHT22;29973;43.742;1.236;2022-12-05T08:06:06;-1.90;99.90
44277;DHT22;29973;43.742;1.236;2022-12-05T08:08:32;-1.90;99.90
44277;DHT22;29973;43.742;1.236;2022-12-05T08:11:25;-1.80;99.90
44277;DHT22;29973;43.742;1.236;2022-12-05T08:13:52;-1.70;99.90
44277;DHT22;29973;43.742;1.236;2022-12-05T08:16:20;-1.60;99.90
44277;DHT22;29973;43.742;1.236;2022-12-05T08:18:47;-1.30;99.90
44277;DHT22;29973;43.742;1.236;2022-12-05T08:21:17;-1.00;99.90
44277;DHT22;29973;43.742;1.236;2022-12-05T08:23:44;-0.90;99.90
44277;DHT22;29973;43.742;1.236;2022-12-05T08:26:16;-0.80;99.90
44277;DHT22;29973;43.742;1.236;2022-12-05T08:28:43;-0.70;99.90
44277;DHT22;29973;43.742;1.236;2022-12-05T08:31:14;-0.70;99.90
44277;DHT22;29973;43.742;1.236;2022-12-05T08:33:41;-0.60;99.90
44277;DHT22;29973;43.742;1.236;2022-12-05T08:36:09;-0.50;99.90
44277;DHT22;29973;43.742;1.236;2022-12-05T08:38:35;-0.30;99.90
44277;DHT22;29973;43.742;1.236;2022-12-05T08:41:05;-0.10;99.90
44277;DHT22;29973;43.742;1.236;2022-12-05T08:43:32;0.00;99.90
44277;DHT22;29973;43.742;1.236;2022-12-05T08:45:58;0.20;99.90
44277;DHT22;29973;43.742;1.236;2022-12-05T08:48:25;0.30;99.90
44277;DHT22;29973;43.742;1.236;2022-12-05T08:50:51;0.30;99.90
44277;DHT22;29973;43.742;1.236;2022-12-05T08:53:17;0.40;99.90
44277;DHT22;29973;43.742;1.236;2022-12-05T08:55:43;0.80;99.90
44277;DHT22;29973;43.742;1.236;2022-12-05T08:58:10;2.20;99.90
44277;DHT22;29973;43.742;1.236;2022-12-05T09:00:36;3.90;99.90
44277;DHT22;29973;43.742;1.236;2022-12-05T09:03:02;4.80;99.90
44277;DHT22;29973;43.742;1.236;2022-12-05T09:05:28;5.50;99.90
44277;DHT22;29973;43.742;1.236;2022-12-05T09:07:54;6.60;99.90
44277;DHT22;29973;43.742;1.236;2022-12-05T09:10:19;6.40;99.90
44277;DHT22;29973;43.742;1.236;2022-12-05T09:12:46;7.10;99.90
44277;DHT22;29973;43.742;1.236;2022-12-05T09:15:12;8.00;99.90
44277;DHT22;29973;43.742;1.236;2022-12-05T09:17:38;8.40;99.90
44277;DHT22;29973;43.742;1.236;2022-12-05T09:20:05;8.60;99.90
44277;DHT22;29973;43.742;1.236;2022-12-05T09:22:31;9.00;99.90
44277;DHT22;29973;43.742;1.236;2022-12-05T09:24:57;9.30;99.90
44277;DHT22;29973;43.742;1.236;2022-12-05T09:27:23;9.70;99.90
44277;DHT22;29973;43.742;1.236;2022-12-05T09:29:49;9.40;99.90
44277;DHT22;29973;43.742;1.236;2022-12-05T09:32:15;10.20;99.90
44277;DHT22;29973;43.742;1.236;2022-12-05T09:34:40;10.30;99.90
44277;DHT22;29973;43.742;1.236;2022-12-05T09:37:07;9.90;99.90
44277;DHT22;29973;43.742;1.236;2022-12-05T09:39:33;9.80;99.90
44277;DHT22;29973;43.742;1.236;2022-12-05T09:45:17;10.40;99.90
44277;DHT22;29973;43.742;1.236;2022-12-05T09:48:08;9.50;99.90
44277;DHT22;29973;43.742;1.236;2022-12-05T09:50:48;10.20;99.90
44277;DHT22;29973;43.742;1.236;2022-12-05T09:53:28;10.00;99.90
44277;DHT22;29973;43.742;1.236;2022-12-05T09:56:20;10.30;99.90
44277;DHT22;29973;43.742;1.236;2022-12-05T09:58:53;11.00;99.90
44277;DHT22;29973;43.742;1.236;2022-12-05T10:06:40;10.40;99.90
44277;DHT22;29973;43.742;1.236;2022-12-05T10:15:13;11.20;99.90
44277;DHT22;29973;43.742;1.236;2022-12-05T10:17:43;12.10;99.90
44277;DHT22;29973;43.742;1.236;2022-12-05T10:20:24;12.80;99.90
44277;DHT22;29973;43.742;1.236;2022-12-05T10:22:59;11.50;99.90
44277;DHT22;29973;43.742;1.236;2022-12-05T10:25:28;11.50;99.90
44277;DHT22;29973;43.742;1.236;2022-12-05T10:28:01;12.50;99.90
44277;DHT22;29973;43.742;1.236;2022-12-05T10:30:31;12.70;99.90
44277;DHT22;29973;43.742;1.236;2022-12-05T10:33:03;12.20;99.90
44277;DHT22;29973;43.742;1.236;2022-12-05T10:35:34;11.50;99.90
44277;DHT22;29973;43.742;1.236;2022-12-05T10:38:08;12.30;99.90
44277;DHT22;29973;43.742;1.236;2022-12-05T10:40:49;14.00;99.90
44277;DHT22;29973;43.742;1.236;2022-12-05T10:43:24;13.90;99.90
44277;DHT22;29973;43.742;1.236;2022-12-05T10:45:50;15.20;99.90
44277;DHT22;29973;43.742;1.236;2022-12-05T10:48:18;15.10;99.90
44277;DHT22;29973;43.742;1.236;2022-12-05T10:50:47;14.80;99.90
44277;DHT22;29973;43.742;1.236;2022-12-05T10:53:26;15.00;99.90
44277;DHT22;29973;43.742;1.236;2022-12-05T10:55:52;14.80;99.90
44277;DHT22;29973;43.742;1.236;2022-12-05T10:58:23;14.80;99.00
44277;DHT22;29973;43.742;1.236;2022-12-05T11:01:08;15.20;96.20
44277;DHT22;29973;43.742;1.236;2022-12-05T11:03:39;15.80;94.90
44277;DHT22;29973;43.742;1.236;2022-12-05T11:08:41;14.30;98.00
44277;DHT22;29973;43.742;1.236;2022-12-05T11:11:17;15.50;95.50
44277;DHT22;29973;43.742;1.236;2022-12-05T11:14:22;15.70;94.60
44277;DHT22;29973;43.742;1.236;2022-12-05T11:16:55;16.30;94.00
44277;DHT22;29973;43.742;1.236;2022-12-05T11:21:48;16.20;93.10
44277;DHT22;29973;43.742;1.236;2022-12-05T11:26:46;16.30;91.30
44277;DHT22;29973;43.742;1.236;2022-12-05T11:31:56;15.00;92.40
44277;DHT22;29973;43.742;1.236;2022-12-05T11:37:50;17.20;86.40
44277;DHT22;29973;43.742;1.236;2022-12-05T11:40:24;17.20;85.20
44277;DHT22;29973;43.742;1.236;2022-12-05T11:43:34;17.10;87.50
44277;DHT22;29973;43.742;1.236;2022-12-05T11:46:26;15.40;90.80
44277;DHT22;29973;43.742;1.236;2022-12-05T12:03:35;17.80;82.60
44277;DHT22;29973;43.742;1.236;2022-12-05T12:06:31;17.70;80.40
44277;DHT22;29973;43.742;1.236;2022-12-05T12:09:26;17.70;84.40
44277;DHT22;29973;43.742;1.236;2022-12-05T12:15:37;18.80;77.00
44277;DHT22;29973;43.742;1.236;2022-12-05T12:18:11;18.80;75.10
44277;DHT22;29973;43.742;1.236;2022-12-05T12:23:37;18.10;76.80
44277;DHT22;29973;43.742;1.236;2022-12-05T12:28:41;15.30;88.00
44277;DHT22;29973;43.742;1.236;2022-12-05T12:36:40;16.90;73.60
44277;DHT22;29973;43.742;1.236;2022-12-05T12:41:51;18.30;75.60
44277;DHT22;29973;43.742;1.236;2022-12-05T12:44:44;19.30;72.50
44277;DHT22;29973;43.742;1.236;2022-12-05T12:50:02;17.10;81.30
44277;DHT22;29973;43.742;1.236;2022-12-05T13:04:22;17.80;78.10
44277;DHT22;29973;43.742;1.236;2022-12-05T13:07:05;19.00;72.50
44277;DHT22;29973;43.742;1.236;2022-12-05T13:09:46;19.60;73.90
44277;DHT22;29973;43.742;1.236;2022-12-05T13:12:15;18.60;74.50
44277;DHT22;29973;43.742;1.236;2022-12-05T13:18:17;18.30;75.30
44277;DHT22;29973;43.742;1.236;2022-12-05T13:20:47;18.60;74.80
44277;DHT22;29973;43.742;1.236;2022-12-05T13:23:17;19.20;71.70
44277;DHT22;29973;43.742;1.236;2022-12-05T13:25:44;18.40;73.00
44277;DHT22;29973;43.742;1.236;2022-12-05T13:28:31;19.20;73.70
44277;DHT22;29973;43.742;1.236;2022-12-05T13:30:59;20.20;68.60
44277;DHT22;29973;43.742;1.236;2022-12-05T13:33:44;19.20;71.30
44277;DHT22;29973;43.742;1.236;2022-12-05T13:36:11;18.20;73.80
44277;DHT22;29973;43.742;1.236;2022-12-05T13:39:05;18.90;71.90
44277;DHT22;29973;43.742;1.236;2022-12-05T13:41:59;19.00;72.10
44277;DHT22;29973;43.742;1.236;2022-12-05T13:50:29;19.40;70.70
44277;DHT22;29973;43.742;1.236;2022-12-05T13:53:01;18.60;70.20
44277;DHT22;29973;43.742;1.236;2022-12-05T13:55:39;18.20;72.10
44277;DHT22;29973;43.742;1.236;2022-12-05T14:00:44;19.00;70.90
44277;DHT22;29973;43.742;1.236;2022-12-05T14:05:59;20.50;63.90
44277;DHT22;29973;43.742;1.236;2022-12-05T14:15:53;20.30;62.30
44277;DHT22;29973;43.742;1.236;2022-12-05T14:27:06;18.10;69.20
44277;DHT22;29973;43.742;1.236;2022-12-05T14:32:35;19.60;65.20
44277;DHT22;29973;43.742;1.236;2022-12-05T14:35:11;18.00;72.40
44277;DHT22;29973;43.742;1.236;2022-12-05T14:43:16;13.70;90.40
44277;DHT22;29973;43.742;1.236;2022-12-05T14:50:52;11.20;98.60
44277;DHT22;29973;43.742;1.236;2022-12-05T15:00:54;10.00;99.90
44277;DHT22;29973;43.742;1.236;2022-12-05T15:03:27;9.90;99.90
44277;DHT22;29973;43.742;1.236;2022-12-05T15:05:55;9.70;99.90
44277;DHT22;29973;43.742;1.236;2022-12-05T15:08:22;9.40;99.90
44277;DHT22;29973;43.742;1.236;2022-12-05T15:10:49;9.00;99.90
44277;DHT22;29973;43.742;1.236;2022-12-05T15:13:21;8.80;99.90
44277;DHT22;29973;43.742;1.236;2022-12-05T15:18:46;8.90;99.90
44277;DHT22;29973;43.742;1.236;2022-12-05T15:23:54;8.50;99.90
44277;DHT22;29973;43.742;1.236;2022-12-05T15:29:25;8.30;99.90
44277;DHT22;29973;43.742;1.236;2022-12-05T15:31:56;8.20;99.90
44277;DHT22;29973;43.742;1.236;2022-12-05T15:34:44;8.20;99.90
44277;DHT22;29973;43.742;1.236;2022-12-05T15:37:31;7.90;99.90
44277;DHT22;29973;43.742;1.236;2022-12-05T15:40:15;7.80;99.90
44277;DHT22;29973;43.742;1.236;2022-12-05T15:42:46;7.80;99.90
44277;DHT22;29973;43.742;1.236;2022-12-05T15:45:22;7.70;99.90
44277;DHT22;29973;43.742;1.236;2022-12-05T15:48:10;7.70;99.90
44277;DHT22;29973;43.742;1.236;2022-12-05T15:50:43;7.60;99.90
44277;DHT22;29973;43.742;1.236;2022-12-05T15:58:30;7.40;99.90
44277;DHT22;29973;43.742;1.236;2022-12-05T16:04:00;7.10;99.90
44277;DHT22;29973;43.742;1.236;2022-12-05T16:06:50;6.90;99.90
44277;DHT22;29973;43.742;1.236;2022-12-05T16:09:27;6.70;99.90
44277;DHT22;29973;43.742;1.236;2022-12-05T16:11:56;6.50;99.90
44277;DHT22;29973;43.742;1.236;2022-12-05T16:14:27;6.40;99.90
44277;DHT22;29973;43.742;1.236;2022-12-05T16:19:46;6.20;99.90
44277;DHT22;29973;43.742;1.236;2022-12-05T16:24:42;6.00;99.90
44277;DHT22;29973;43.742;1.236;2022-12-05T16:27:15;5.90;99.90
44277;DHT22;29973;43.742;1.236;2022-12-05T16:29:42;5.60;99.90
44277;DHT22;29973;43.742;1.236;2022-12-05T16:32:38;5.40;99.90
44277;DHT22;29973;43.742;1.236;2022-12-05T16:38:28;5.50;99.90
44277;DHT22;29973;43.742;1.236;2022-12-05T16:41:01;5.30;99.90
44277;DHT22;29973;43.742;1.236;2022-12-05T16:48:26;4.90;99.90
44277;DHT22;29973;43.742;1.236;2022-12-05T16:51:25;4.80;99.90
44277;DHT22;29973;43.742;1.236;2022-12-05T16:53:51;4.70;99.90
44277;DHT22;29973;43.742;1.236;2022-12-05T16:56:24;4.70;99.90
44277;DHT22;29973;43.742;1.236;2022-12-05T16:58:50;4.60;99.90
44277;DHT22;29973;43.742;1.236;2022-12-05T17:01:23;4.40;99.90
44277;DHT22;29973;43.742;1.236;2022-12-05T17:03:52;4.30;99.90
44277;DHT22;29973;43.742;1.236;2022-12-05T17:06:23;4.30;99.90
44277;DHT22;29973;43.742;1.236;2022-12-05T17:08:55;4.30;99.90
44277;DHT22;29973;43.742;1.236;2022-12-05T17:11:24;4.10;99.90
44277;DHT22;29973;43.742;1.236;2022-12-05T17:13:54;4.10;99.90
44277;DHT22;29973;43.742;1.236;2022-12-05T17:16:21;4.10;99.90
44277;DHT22;29973;43.742;1.236;2022-12-05T17:18:49;4.00;99.90
44277;DHT22;29973;43.742;1.236;2022-12-05T17:21:18;3.90;99.90
44277;DHT22;29973;43.742;1.236;2022-12-05T17:23:45;3.90;99.90
44277;DHT22;29973;43.742;1.236;2022-12-05T17:26:13;3.80;99.90
44277;DHT22;29973;43.742;1.236;2022-12-05T17:28:49;3.80;99.90
44277;DHT22;29973;43.742;1.236;2022-12-05T17:31:33;3.80;99.90
44277;DHT22;29973;43.742;1.236;2022-12-05T17:34:05;3.60;99.90
44277;DHT22;29973;43.742;1.236;2022-12-05T17:36:41;3.60;99.90
44277;DHT22;29973;43.742;1.236;2022-12-05T17:39:07;3.70;99.90
44277;DHT22;29973;43.742;1.236;2022-12-05T17:41:36;3.60;99.90
44277;DHT22;29973;43.742;1.236;2022-12-05T17:44:12;3.50;99.90
44277;DHT22;29973;43.742;1.236;2022-12-05T17:46:43;3.40;99.90
44277;DHT22;29973;43.742;1.236;2022-12-05T17:49:13;3.40;99.90
44277;DHT22;29973;43.742;1.236;2022-12-05T17:51:40;3.30;99.90
44277;DHT22;29973;43.742;1.236;2022-12-05T17:54:09;3.30;99.90
44277;DHT22;29973;43.742;1.236;2022-12-05T17:56:35;3.40;99.90
44277;DHT22;29973;43.742;1.236;2022-12-05T17:59:00;3.40;99.90
44277;DHT22;29973;43.742;1.236;2022-12-05T18:01:26;3.40;99.90
44277;DHT22;29973;43.742;1.236;2022-12-05T18:03:55;3.30;99.90
44277;DHT22;29973;43.742;1.236;2022-12-05T18:06:21;3.30;99.90
44277;DHT22;29973;43.742;1.236;2022-12-05T18:08:47;3.40;99.90
44277;DHT22;29973;43.742;1.236;2022-12-05T18:11:14;3.40;99.90
44277;DHT22;29973;43.742;1.236;2022-12-05T18:13:42;3.40;99.90
44277;DHT22;29973;43.742;1.236;2022-12-05T18:16:08;3.40;99.90
44277;DHT22;29973;43.742;1.236;2022-12-05T18:18:37;3.50;99.90
44277;DHT22;29973;43.742;1.236;2022-12-05T18:21:14;3.50;99.90
44277;DHT22;29973;43.742;1.236;2022-12-05T18:23:42;3.60;99.90
44277;DHT22;29973;43.742;1.236;2022-12-05T18:26:09;3.60;99.90
44277;DHT22;29973;43.742;1.236;2022-12-05T18:28:36;3.60;99.90
44277;DHT22;29973;43.742;1.236;2022-12-05T18:31:14;3.50;99.90
44277;DHT22;29973;43.742;1.236;2022-12-05T18:33:42;3.50;99.90
44277;DHT22;29973;43.742;1.236;2022-12-05T18:36:17;3.40;99.90
44277;DHT22;29973;43.742;1.236;2022-12-05T18:38:50;3.40;99.90
44277;DHT22;29973;43.742;1.236;2022-12-05T18:41:19;3.30;99.90
44277;DHT22;29973;43.742;1.236;2022-12-05T18:43:48;3.30;99.90
44277;DHT22;29973;43.742;1.236;2022-12-05T18:46:14;3.30;99.90
44277;DHT22;29973;43.742;1.236;2022-12-05T18:48:45;3.40;99.90
44277;DHT22;29973;43.742;1.236;2022-12-05T18:51:17;3.30;99.90
44277;DHT22;29973;43.742;1.236;2022-12-05T18:53:44;3.40;99.90
44277;DHT22;29973;43.742;1.236;2022-12-05T18:56:26;3.40;99.90
44277;DHT22;29973;43.742;1.236;2022-12-05T18:58:57;3.40;99.90
44277;DHT22;29973;43.742;1.236;2022-12-05T19:01:27;3.30;99.90
44277;DHT22;29973;43.742;1.236;2022-12-05T19:03:56;3.30;99.90
44277;DHT22;29973;43.742;1.236;2022-12-05T19:06:25;3.40;99.90
44277;DHT22;29973;43.742;1.236;2022-12-05T19:08:56;3.30;99.90
44277;DHT22;29973;43.742;1.236;2022-12-05T19:11:30;3.20;99.90
44277;DHT22;29973;43.742;1.236;2022-12-05T19:16:57;3.20;99.90
44277;DHT22;29973;43.742;1.236;2022-12-05T19:22:05;3.20;99.90
44277;DHT22;29973;43.742;1.236;2022-12-05T19:24:37;3.20;99.90